sensor_id;sensor_type;location;lat;lon;timestamp;P1;durP1;ratioP1;P2;durP2;ratioP2
70455;SDS011;57916;51.996;5.180;2023-05-21T00:01:42;7.25;;;2.65;;
70455;SDS011;57916;51.996;5.180;2023-05-21T00:04:09;3.15;;;2.35;;
70455;SDS011;57916;51.996;5.180;2023-05-21T00:06:37;5.22;;;2.30;;
70455;SDS011;57916;51.996;5.180;2023-05-21T00:09:04;3.88;;;2.38;;
70455;SDS011;57916;51.996;5.180;2023-05-21T00:11:32;2.90;;;2.50;;
70455;SDS011;57916;51.996;5.180;2023-05-21T00:13:59;3.42;;;2.47;;
70455;SDS011;57916;51.996;5.180;2023-05-21T00:16:26;2.50;;;2.30;;
70455;SDS011;57916;51.996;5.180;2023-05-21T00:18:53;4.30;;;2.15;;
70455;SDS011;57916;51.996;5.180;2023-05-21T00:21:20;2.30;;;2.10;;
70455;SDS011;57916;51.996;5.180;2023-05-21T00:23:48;3.53;;;2.55;;
70455;SDS011;57916;51.996;5.180;2023-05-21T00:26:15;2.80;;;2.40;;
70455;SDS011;57916;51.996;5.180;2023-05-21T00:28:43;3.25;;;2.30;;
70455;SDS011;57916;51.996;5.180;2023-05-21T00:31:10;6.23;;;2.40;;
70455;SDS011;57916;51.996;5.180;2023-05-21T00:33:37;3.97;;;2.58;;
70455;SDS011;57916;51.996;5.180;2023-05-21T00:36:04;3.27;;;2.20;;
70455;SDS011;57916;51.996;5.180;2023-05-21T00:38:31;4.13;;;2.33;;
70455;SDS011;57916;51.996;5.180;2023-05-21T00:40:59;2.33;;;2.20;;
70455;SDS011;57916;51.996;5.180;2023-05-21T00:43:27;5.60;;;2.22;;
70455;SDS011;57916;51.996;5.180;2023-05-21T00:45:54;2.53;;;2.20;;
70455;SDS011;57916;51.996;5.180;2023-05-21T00:48:22;2.53;;;2.13;;
70455;SDS011;57916;51.996;5.180;2023-05-21T00:50:49;4.75;;;2.63;;
70455;SDS011;57916;51.996;5.180;2023-05-21T00:53:16;7.63;;;2.33;;
70455;SDS011;57916;51.996;5.180;2023-05-21T00:55:45;4.45;;;2.30;;
70455;SDS011;57916;51.996;5.180;2023-05-21T00:58:12;4.93;;;2.45;;
70455;SDS011;57916;51.996;5.180;2023-05-21T01:00:39;5.20;;;2.30;;
70455;SDS011;57916;51.996;5.180;2023-05-21T01:03:07;5.07;;;2.60;;
70455;SDS011;57916;51.996;5.180;2023-05-21T01:05:34;5.72;;;2.55;;
70455;SDS011;57916;51.996;5.180;2023-05-21T01:08:02;5.43;;;2.50;;
70455;SDS011;57916;51.996;5.180;2023-05-21T01:10:29;4.10;;;2.53;;
70455;SDS011;57916;51.996;5.180;2023-05-21T01:12:56;8.48;;;2.50;;
70455;SDS011;57916;51.996;5.180;2023-05-21T01:15:25;7.37;;;2.67;;
70455;SDS011;57916;51.996;5.180;2023-05-21T01:17:53;3.10;;;2.50;;
70455;SDS011;57916;51.996;5.180;2023-05-21T01:20:21;3.83;;;2.55;;
70455;SDS011;57916;51.996;5.180;2023-05-21T01:25:22;3.47;;;2.72;;
70455;SDS011;57916;51.996;5.180;2023-05-21T01:27:50;3.03;;;2.50;;
70455;SDS011;57916;51.996;5.180;2023-05-21T01:30:18;3.35;;;2.60;;
70455;SDS011;57916;51.996;5.180;2023-05-21T01:35:27;4.65;;;2.92;;
70455;SDS011;57916;51.996;5.180;2023-05-21T01:38:08;3.13;;;2.80;;
70455;SDS011;57916;51.996;5.180;2023-05-21T01:40:43;3.33;;;3.05;;
70455;SDS011;57916;51.996;5.180;2023-05-21T01:43:17;4.32;;;2.85;;
70455;SDS011;57916;51.996;5.180;2023-05-21T01:45:46;3.53;;;2.63;;
70455;SDS011;57916;51.996;5.180;2023-05-21T01:48:14;5.25;;;2.70;;
70455;SDS011;57916;51.996;5.180;2023-05-21T01:50:42;5.90;;;2.63;;
70455;SDS011;57916;51.996;5.180;2023-05-21T01:53:11;3.30;;;3.00;;
70455;SDS011;57916;51.996;5.180;2023-05-21T01:55:38;4.32;;;2.70;;
70455;SDS011;57916;51.996;5.180;2023-05-21T01:58:07;3.28;;;2.95;;
70455;SDS011;57916;51.996;5.180;2023-05-21T02:00:35;5.90;;;3.05;;
70455;SDS011;57916;51.996;5.180;2023-05-21T02:03:02;4.90;;;3.17;;
70455;SDS011;57916;51.996;5.180;2023-05-21T02:05:30;3.10;;;2.90;;
70455;SDS011;57916;51.996;5.180;2023-05-21T02:07:56;4.68;;;2.90;;
70455;SDS011;57916;51.996;5.180;2023-05-21T02:10:25;4.17;;;3.10;;
70455;SDS011;57916;51.996;5.180;2023-05-21T02:12:52;7.28;;;3.22;;
70455;SDS011;57916;51.996;5.180;2023-05-21T02:15:19;3.42;;;3.00;;
70455;SDS011;57916;51.996;5.180;2023-05-21T02:17:47;4.68;;;3.30;;
70455;SDS011;57916;51.996;5.180;2023-05-21T02:20:16;6.35;;;3.40;;
70455;SDS011;57916;51.996;5.180;2023-05-21T02:22:45;3.58;;;3.28;;
70455;SDS011;57916;51.996;5.180;2023-05-21T02:25:16;5.85;;;3.55;;
70455;SDS011;57916;51.996;5.180;2023-05-21T02:27:45;5.72;;;3.60;;
70455;SDS011;57916;51.996;5.180;2023-05-21T02:30:13;3.55;;;3.25;;
70455;SDS011;57916;51.996;5.180;2023-05-21T02:32:41;5.93;;;3.50;;
70455;SDS011;57916;51.996;5.180;2023-05-21T02:35:10;3.80;;;3.17;;
70455;SDS011;57916;51.996;5.180;2023-05-21T02:37:39;4.10;;;3.40;;
70455;SDS011;57916;51.996;5.180;2023-05-21T02:40:06;5.15;;;3.65;;
70455;SDS011;57916;51.996;5.180;2023-05-21T02:42:36;7.03;;;3.47;;
70455;SDS011;57916;51.996;5.180;2023-05-21T02:45:06;3.92;;;3.53;;
70455;SDS011;57916;51.996;5.180;2023-05-21T02:47:34;4.00;;;3.60;;
70455;SDS011;57916;51.996;5.180;2023-05-21T02:50:01;4.07;;;3.55;;
70455;SDS011;57916;51.996;5.180;2023-05-21T02:52:29;3.67;;;3.37;;
70455;SDS011;57916;51.996;5.180;2023-05-21T02:54:56;5.00;;;3.70;;
70455;SDS011;57916;51.996;5.180;2023-05-21T02:57:23;3.90;;;3.30;;
70455;SDS011;57916;51.996;5.180;2023-05-21T02:59:50;4.15;;;3.20;;
70455;SDS011;57916;51.996;5.180;2023-05-21T03:02:17;7.43;;;3.57;;
70455;SDS011;57916;51.996;5.180;2023-05-21T03:04:44;4.90;;;3.65;;
70455;SDS011;57916;51.996;5.180;2023-05-21T03:07:12;4.30;;;3.90;;
70455;SDS011;57916;51.996;5.180;2023-05-21T03:09:42;5.78;;;3.65;;
70455;SDS011;57916;51.996;5.180;2023-05-21T03:12:09;8.15;;;3.83;;
70455;SDS011;57916;51.996;5.180;2023-05-21T03:14:37;6.15;;;4.13;;
70455;SDS011;57916;51.996;5.180;2023-05-21T03:17:04;5.87;;;3.87;;
70455;SDS011;57916;51.996;5.180;2023-05-21T03:19:32;4.15;;;3.70;;
70455;SDS011;57916;51.996;5.180;2023-05-21T03:22:03;3.95;;;3.58;;
70455;SDS011;57916;51.996;5.180;2023-05-21T03:24:34;5.60;;;4.10;;
70455;SDS011;57916;51.996;5.180;2023-05-21T03:27:02;6.07;;;3.88;;
70455;SDS011;57916;51.996;5.180;2023-05-21T03:29:32;4.85;;;3.92;;
70455;SDS011;57916;51.996;5.180;2023-05-21T03:32:01;4.10;;;3.80;;
70455;SDS011;57916;51.996;5.180;2023-05-21T03:34:29;5.20;;;3.97;;
70455;SDS011;57916;51.996;5.180;2023-05-21T03:36:57;7.85;;;3.72;;
70455;SDS011;57916;51.996;5.180;2023-05-21T03:39:25;7.13;;;3.97;;
70455;SDS011;57916;51.996;5.180;2023-05-21T03:41:54;6.47;;;4.00;;
70455;SDS011;57916;51.996;5.180;2023-05-21T03:44:42;7.43;;;4.13;;
70455;SDS011;57916;51.996;5.180;2023-05-21T03:47:29;4.07;;;3.78;;
70455;SDS011;57916;51.996;5.180;2023-05-21T03:49:57;7.40;;;4.05;;
70455;SDS011;57916;51.996;5.180;2023-05-21T03:52:25;9.07;;;4.25;;
70455;SDS011;57916;51.996;5.180;2023-05-21T03:54:52;4.47;;;4.03;;
70455;SDS011;57916;51.996;5.180;2023-05-21T03:57:19;5.43;;;4.10;;
70455;SDS011;57916;51.996;5.180;2023-05-21T03:59:47;4.45;;;4.05;;
70455;SDS011;57916;51.996;5.180;2023-05-21T04:02:14;4.50;;;4.10;;
70455;SDS011;57916;51.996;5.180;2023-05-21T04:04:41;4.85;;;4.03;;
70455;SDS011;57916;51.996;5.180;2023-05-21T04:07:09;4.22;;;3.92;;
70455;SDS011;57916;51.996;5.180;2023-05-21T04:09:40;5.82;;;4.45;;
70455;SDS011;57916;51.996;5.180;2023-05-21T04:12:07;6.95;;;4.20;;
70455;SDS011;57916;51.996;5.180;2023-05-21T04:14:35;5.93;;;3.80;;
70455;SDS011;57916;51.996;5.180;2023-05-21T04:17:03;4.37;;;3.97;;
70455;SDS011;57916;51.996;5.180;2023-05-21T04:19:31;4.55;;;4.00;;
70455;SDS011;57916;51.996;5.180;2023-05-21T04:21:59;6.43;;;4.15;;
70455;SDS011;57916;51.996;5.180;2023-05-21T04:24:26;4.30;;;3.90;;
70455;SDS011;57916;51.996;5.180;2023-05-21T04:27:00;5.77;;;4.07;;
70455;SDS011;57916;51.996;5.180;2023-05-21T04:29:29;6.70;;;4.13;;
70455;SDS011;57916;51.996;5.180;2023-05-21T04:31:56;5.75;;;3.75;;
70455;SDS011;57916;51.996;5.180;2023-05-21T04:34:23;4.82;;;4.00;;
70455;SDS011;57916;51.996;5.180;2023-05-21T04:36:51;5.78;;;4.05;;
70455;SDS011;57916;51.996;5.180;2023-05-21T04:39:17;4.55;;;3.90;;
70455;SDS011;57916;51.996;5.180;2023-05-21T04:41:44;4.65;;;3.72;;
70455;SDS011;57916;51.996;5.180;2023-05-21T04:44:12;5.13;;;3.80;;
70455;SDS011;57916;51.996;5.180;2023-05-21T04:46:43;4.25;;;3.88;;
70455;SDS011;57916;51.996;5.180;2023-05-21T04:49:11;5.00;;;3.93;;
70455;SDS011;57916;51.996;5.180;2023-05-21T04:51:38;5.35;;;4.15;;
70455;SDS011;57916;51.996;5.180;2023-05-21T04:54:06;4.53;;;4.07;;
70455;SDS011;57916;51.996;5.180;2023-05-21T04:56:33;8.13;;;4.15;;
70455;SDS011;57916;51.996;5.180;2023-05-21T04:59:01;5.30;;;3.80;;
70455;SDS011;57916;51.996;5.180;2023-05-21T05:01:32;4.35;;;3.95;;
70455;SDS011;57916;51.996;5.180;2023-05-21T05:04:00;5.60;;;4.00;;
70455;SDS011;57916;51.996;5.180;2023-05-21T05:06:28;7.05;;;3.97;;
70455;SDS011;57916;51.996;5.180;2023-05-21T05:08:56;4.63;;;4.00;;
70455;SDS011;57916;51.996;5.180;2023-05-21T05:11:23;6.45;;;4.20;;
70455;SDS011;57916;51.996;5.180;2023-05-21T05:13:51;4.78;;;4.05;;
70455;SDS011;57916;51.996;5.180;2023-05-21T05:16:18;6.65;;;4.20;;
70455;SDS011;57916;51.996;5.180;2023-05-21T05:18:51;5.03;;;4.10;;
70455;SDS011;57916;51.996;5.180;2023-05-21T05:21:20;5.47;;;4.20;;
70455;SDS011;57916;51.996;5.180;2023-05-21T05:23:48;5.75;;;4.15;;
70455;SDS011;57916;51.996;5.180;2023-05-21T05:26:16;7.95;;;3.80;;
70455;SDS011;57916;51.996;5.180;2023-05-21T05:28:43;6.95;;;4.10;;
70455;SDS011;57916;51.996;5.180;2023-05-21T05:31:11;7.65;;;4.25;;
70455;SDS011;57916;51.996;5.180;2023-05-21T05:33:38;5.65;;;4.22;;
70455;SDS011;57916;51.996;5.180;2023-05-21T05:36:06;5.00;;;4.10;;
70455;SDS011;57916;51.996;5.180;2023-05-21T05:38:34;6.43;;;4.10;;
70455;SDS011;57916;51.996;5.180;2023-05-21T05:41:01;8.43;;;4.50;;
70455;SDS011;57916;51.996;5.180;2023-05-21T05:43:28;7.57;;;4.30;;
70455;SDS011;57916;51.996;5.180;2023-05-21T05:45:57;6.00;;;4.40;;
70455;SDS011;57916;51.996;5.180;2023-05-21T05:48:24;5.53;;;4.18;;
70455;SDS011;57916;51.996;5.180;2023-05-21T05:50:51;7.15;;;4.28;;
70455;SDS011;57916;51.996;5.180;2023-05-21T05:53:23;5.18;;;4.20;;
70455;SDS011;57916;51.996;5.180;2023-05-21T05:55:51;5.78;;;4.50;;
70455;SDS011;57916;51.996;5.180;2023-05-21T05:58:18;9.38;;;4.60;;
70455;SDS011;57916;51.996;5.180;2023-05-21T06:01:03;5.97;;;4.20;;
70455;SDS011;57916;51.996;5.180;2023-05-21T06:03:30;6.32;;;4.28;;
70455;SDS011;57916;51.996;5.180;2023-05-21T06:06:03;6.15;;;4.45;;
70455;SDS011;57916;51.996;5.180;2023-05-21T06:08:31;5.00;;;4.50;;
70455;SDS011;57916;51.996;5.180;2023-05-21T06:11:03;5.63;;;4.55;;
70455;SDS011;57916;51.996;5.180;2023-05-21T06:13:30;7.60;;;4.50;;
70455;SDS011;57916;51.996;5.180;2023-05-21T06:15:57;6.03;;;4.43;;
70455;SDS011;57916;51.996;5.180;2023-05-21T06:18:24;4.83;;;4.10;;
70455;SDS011;57916;51.996;5.180;2023-05-21T06:20:52;5.13;;;4.35;;
70455;SDS011;57916;51.996;5.180;2023-05-21T06:23:20;5.57;;;4.25;;
70455;SDS011;57916;51.996;5.180;2023-05-21T06:25:48;5.18;;;4.68;;
70455;SDS011;57916;51.996;5.180;2023-05-21T06:28:15;7.03;;;4.70;;
70455;SDS011;57916;51.996;5.180;2023-05-21T06:30:43;7.40;;;4.50;;
70455;SDS011;57916;51.996;5.180;2023-05-21T06:33:10;9.37;;;4.60;;
70455;SDS011;57916;51.996;5.180;2023-05-21T06:35:37;5.45;;;4.43;;
70455;SDS011;57916;51.996;5.180;2023-05-21T06:38:06;4.65;;;4.25;;
70455;SDS011;57916;51.996;5.180;2023-05-21T06:40:33;6.30;;;4.60;;
70455;SDS011;57916;51.996;5.180;2023-05-21T06:43:01;5.90;;;4.32;;
70455;SDS011;57916;51.996;5.180;2023-05-21T06:45:48;5.75;;;4.78;;
70455;SDS011;57916;51.996;5.180;2023-05-21T06:48:31;6.25;;;4.50;;
70455;SDS011;57916;51.996;5.180;2023-05-21T06:50:58;8.02;;;4.85;;
70455;SDS011;57916;51.996;5.180;2023-05-21T06:53:25;6.30;;;4.70;;
70455;SDS011;57916;51.996;5.180;2023-05-21T06:55:52;7.18;;;4.90;;
70455;SDS011;57916;51.996;5.180;2023-05-21T06:58:26;9.13;;;4.90;;
70455;SDS011;57916;51.996;5.180;2023-05-21T07:00:57;6.60;;;5.03;;
70455;SDS011;57916;51.996;5.180;2023-05-21T07:03:24;5.30;;;4.80;;
70455;SDS011;57916;51.996;5.180;2023-05-21T07:05:52;6.97;;;4.88;;
70455;SDS011;57916;51.996;5.180;2023-05-21T07:08:19;7.05;;;4.80;;
70455;SDS011;57916;51.996;5.180;2023-05-21T07:10:47;8.87;;;5.00;;
70455;SDS011;57916;51.996;5.180;2023-05-21T07:13:15;9.55;;;4.80;;
70455;SDS011;57916;51.996;5.180;2023-05-21T07:15:43;6.50;;;4.65;;
70455;SDS011;57916;51.996;5.180;2023-05-21T07:18:10;7.65;;;4.80;;
70455;SDS011;57916;51.996;5.180;2023-05-21T07:20:37;5.90;;;5.10;;
70455;SDS011;57916;51.996;5.180;2023-05-21T07:23:08;10.02;;;5.10;;
70455;SDS011;57916;51.996;5.180;2023-05-21T07:25:35;7.30;;;5.20;;
70455;SDS011;57916;51.996;5.180;2023-05-21T07:28:02;7.80;;;4.80;;
70455;SDS011;57916;51.996;5.180;2023-05-21T07:30:32;6.72;;;5.35;;
70455;SDS011;57916;51.996;5.180;2023-05-21T07:33:00;9.15;;;5.18;;
70455;SDS011;57916;51.996;5.180;2023-05-21T07:35:27;6.07;;;4.78;;
70455;SDS011;57916;51.996;5.180;2023-05-21T07:37:55;8.05;;;5.22;;
70455;SDS011;57916;51.996;5.180;2023-05-21T07:40:22;8.67;;;5.57;;
70455;SDS011;57916;51.996;5.180;2023-05-21T07:42:49;5.72;;;4.93;;
70455;SDS011;57916;51.996;5.180;2023-05-21T07:45:18;8.25;;;5.60;;
70455;SDS011;57916;51.996;5.180;2023-05-21T07:47:46;5.67;;;5.10;;
70455;SDS011;57916;51.996;5.180;2023-05-21T07:50:15;5.70;;;5.20;;
70455;SDS011;57916;51.996;5.180;2023-05-21T07:52:42;6.28;;;5.30;;
70455;SDS011;57916;51.996;5.180;2023-05-21T07:55:09;6.00;;;5.20;;
70455;SDS011;57916;51.996;5.180;2023-05-21T07:57:38;6.20;;;5.38;;
70455;SDS011;57916;51.996;5.180;2023-05-21T08:00:14;9.30;;;5.57;;
70455;SDS011;57916;51.996;5.180;2023-05-21T08:02:45;5.80;;;5.15;;
70455;SDS011;57916;51.996;5.180;2023-05-21T08:05:13;7.57;;;5.55;;
70455;SDS011;57916;51.996;5.180;2023-05-21T08:07:42;11.82;;;5.57;;
70455;SDS011;57916;51.996;5.180;2023-05-21T08:10:09;6.70;;;5.43;;
70455;SDS011;57916;51.996;5.180;2023-05-21T08:12:36;6.53;;;5.20;;
70455;SDS011;57916;51.996;5.180;2023-05-21T08:15:05;13.05;;;5.30;;
70455;SDS011;57916;51.996;5.180;2023-05-21T08:17:36;10.40;;;5.18;;
70455;SDS011;57916;51.996;5.180;2023-05-21T08:20:04;10.63;;;5.60;;
70455;SDS011;57916;51.996;5.180;2023-05-21T08:22:33;7.07;;;5.37;;
70455;SDS011;57916;51.996;5.180;2023-05-21T08:25:00;9.77;;;4.97;;
70455;SDS011;57916;51.996;5.180;2023-05-21T08:27:28;5.88;;;5.30;;
70455;SDS011;57916;51.996;5.180;2023-05-21T08:29:56;7.97;;;4.87;;
70455;SDS011;57916;51.996;5.180;2023-05-21T08:32:23;7.07;;;5.10;;
70455;SDS011;57916;51.996;5.180;2023-05-21T08:34:51;7.30;;;5.40;;
70455;SDS011;57916;51.996;5.180;2023-05-21T08:37:34;6.72;;;5.05;;
70455;SDS011;57916;51.996;5.180;2023-05-21T08:40:09;7.10;;;5.05;;
70455;SDS011;57916;51.996;5.180;2023-05-21T08:42:44;15.70;;;5.25;;
70455;SDS011;57916;51.996;5.180;2023-05-21T08:45:25;9.35;;;4.95;;
70455;SDS011;57916;51.996;5.180;2023-05-21T08:47:57;6.38;;;4.70;;
70455;SDS011;57916;51.996;5.180;2023-05-21T08:50:28;12.60;;;4.75;;
70455;SDS011;57916;51.996;5.180;2023-05-21T08:53:01;8.75;;;5.10;;
70455;SDS011;57916;51.996;5.180;2023-05-21T08:55:37;10.88;;;5.20;;
70455;SDS011;57916;51.996;5.180;2023-05-21T08:58:08;7.00;;;4.88;;
70455;SDS011;57916;51.996;5.180;2023-05-21T09:00:36;5.22;;;4.72;;
70455;SDS011;57916;51.996;5.180;2023-05-21T09:03:03;7.25;;;4.82;;
70455;SDS011;57916;51.996;5.180;2023-05-21T09:05:40;6.00;;;4.90;;
70455;SDS011;57916;51.996;5.180;2023-05-21T09:08:15;8.13;;;5.13;;
70455;SDS011;57916;51.996;5.180;2023-05-21T09:11:04;7.63;;;5.00;;
70455;SDS011;57916;51.996;5.180;2023-05-21T09:13:37;6.43;;;5.18;;
70455;SDS011;57916;51.996;5.180;2023-05-21T09:16:11;5.55;;;4.80;;
70455;SDS011;57916;51.996;5.180;2023-05-21T09:18:38;9.57;;;5.00;;
70455;SDS011;57916;51.996;5.180;2023-05-21T09:21:26;7.90;;;4.90;;
70455;SDS011;57916;51.996;5.180;2023-05-21T09:24:10;6.07;;;4.70;;
70455;SDS011;57916;51.996;5.180;2023-05-21T09:26:39;5.45;;;4.95;;
70455;SDS011;57916;51.996;5.180;2023-05-21T09:29:08;7.53;;;4.90;;
70455;SDS011;57916;51.996;5.180;2023-05-21T09:31:44;6.22;;;4.88;;
70455;SDS011;57916;51.996;5.180;2023-05-21T09:34:12;5.83;;;4.87;;
70455;SDS011;57916;51.996;5.180;2023-05-21T09:36:41;5.78;;;4.95;;
70455;SDS011;57916;51.996;5.180;2023-05-21T09:39:09;10.07;;;5.00;;
70455;SDS011;57916;51.996;5.180;2023-05-21T09:41:42;5.40;;;4.70;;
70455;SDS011;57916;51.996;5.180;2023-05-21T09:44:10;8.52;;;4.53;;
70455;SDS011;57916;51.996;5.180;2023-05-21T09:46:38;8.10;;;4.57;;
70455;SDS011;57916;51.996;5.180;2023-05-21T09:49:13;10.90;;;4.80;;
70455;SDS011;57916;51.996;5.180;2023-05-21T09:51:55;7.00;;;4.82;;
70455;SDS011;57916;51.996;5.180;2023-05-21T09:54:25;7.93;;;4.78;;
70455;SDS011;57916;51.996;5.180;2023-05-21T09:56:58;10.52;;;5.30;;
70455;SDS011;57916;51.996;5.180;2023-05-21T09:59:34;10.60;;;5.05;;
70455;SDS011;57916;51.996;5.180;2023-05-21T10:02:02;7.43;;;4.68;;
70455;SDS011;57916;51.996;5.180;2023-05-21T10:04:39;5.78;;;5.00;;
70455;SDS011;57916;51.996;5.180;2023-05-21T10:07:07;6.55;;;4.85;;
70455;SDS011;57916;51.996;5.180;2023-05-21T10:09:34;6.40;;;4.75;;
70455;SDS011;57916;51.996;5.180;2023-05-21T10:12:02;7.68;;;4.55;;
70455;SDS011;57916;51.996;5.180;2023-05-21T10:14:29;9.02;;;4.75;;
70455;SDS011;57916;51.996;5.180;2023-05-21T10:16:59;6.28;;;4.75;;
70455;SDS011;57916;51.996;5.180;2023-05-21T10:19:26;5.60;;;4.67;;
70455;SDS011;57916;51.996;5.180;2023-05-21T10:21:57;10.00;;;5.03;;
70455;SDS011;57916;51.996;5.180;2023-05-21T10:24:26;5.68;;;4.97;;
70455;SDS011;57916;51.996;5.180;2023-05-21T10:26:54;5.65;;;4.60;;
70455;SDS011;57916;51.996;5.180;2023-05-21T10:29:21;7.95;;;4.57;;
70455;SDS011;57916;51.996;5.180;2023-05-21T10:31:48;8.07;;;4.82;;
70455;SDS011;57916;51.996;5.180;2023-05-21T10:34:18;7.20;;;4.88;;
70455;SDS011;57916;51.996;5.180;2023-05-21T10:36:47;5.28;;;4.78;;
70455;SDS011;57916;51.996;5.180;2023-05-21T10:39:15;6.20;;;4.68;;
70455;SDS011;57916;51.996;5.180;2023-05-21T10:42:06;11.77;;;5.32;;
70455;SDS011;57916;51.996;5.180;2023-05-21T10:47:44;8.25;;;4.75;;
70455;SDS011;57916;51.996;5.180;2023-05-21T10:58:59;5.13;;;4.70;;
70455;SDS011;57916;51.996;5.180;2023-05-21T11:01:36;7.30;;;4.97;;
70455;SDS011;57916;51.996;5.180;2023-05-21T11:04:03;10.25;;;5.35;;
70455;SDS011;57916;51.996;5.180;2023-05-21T11:06:33;8.63;;;4.97;;
70455;SDS011;57916;51.996;5.180;2023-05-21T11:09:01;6.93;;;4.90;;
70455;SDS011;57916;51.996;5.180;2023-05-21T11:11:38;8.68;;;4.90;;
70455;SDS011;57916;51.996;5.180;2023-05-21T11:17:40;12.15;;;5.18;;
70455;SDS011;57916;51.996;5.180;2023-05-21T11:20:10;7.38;;;4.72;;
70455;SDS011;57916;51.996;5.180;2023-05-21T11:22:42;6.88;;;4.82;;
70455;SDS011;57916;51.996;5.180;2023-05-21T11:25:12;6.65;;;4.90;;
70455;SDS011;57916;51.996;5.180;2023-05-21T11:27:40;7.80;;;4.90;;
70455;SDS011;57916;51.996;5.180;2023-05-21T11:30:08;6.50;;;4.88;;
70455;SDS011;57916;51.996;5.180;2023-05-21T11:38:21;5.53;;;4.90;;
70455;SDS011;57916;51.996;5.180;2023-05-21T11:40:51;6.30;;;4.82;;
70455;SDS011;57916;51.996;5.180;2023-05-21T11:43:21;5.63;;;4.60;;
70455;SDS011;57916;51.996;5.180;2023-05-21T11:45:48;10.55;;;4.80;;
70455;SDS011;57916;51.996;5.180;2023-05-21T11:48:18;6.35;;;5.10;;
70455;SDS011;57916;51.996;5.180;2023-05-21T11:50:52;11.77;;;5.38;;
70455;SDS011;57916;51.996;5.180;2023-05-21T11:53:19;5.88;;;4.88;;
70455;SDS011;57916;51.996;5.180;2023-05-21T11:55:46;8.30;;;4.80;;
70455;SDS011;57916;51.996;5.180;2023-05-21T11:58:14;11.63;;;4.70;;
70455;SDS011;57916;51.996;5.180;2023-05-21T12:00:41;7.85;;;5.40;;
70455;SDS011;57916;51.996;5.180;2023-05-21T12:03:12;7.07;;;5.28;;
70455;SDS011;57916;51.996;5.180;2023-05-21T12:05:43;7.75;;;5.32;;
70455;SDS011;57916;51.996;5.180;2023-05-21T12:08:23;8.60;;;4.70;;
70455;SDS011;57916;51.996;5.180;2023-05-21T12:10:55;7.13;;;4.90;;
70455;SDS011;57916;51.996;5.180;2023-05-21T12:13:25;10.07;;;5.00;;
70455;SDS011;57916;51.996;5.180;2023-05-21T12:15:53;9.45;;;5.40;;
70455;SDS011;57916;51.996;5.180;2023-05-21T12:18:20;8.77;;;5.40;;
70455;SDS011;57916;51.996;5.180;2023-05-21T12:20:47;9.75;;;5.75;;
70455;SDS011;57916;51.996;5.180;2023-05-21T12:23:23;7.63;;;5.40;;
70455;SDS011;57916;51.996;5.180;2023-05-21T12:25:51;10.57;;;6.00;;
70455;SDS011;57916;51.996;5.180;2023-05-21T12:28:19;6.90;;;5.50;;
70455;SDS011;57916;51.996;5.180;2023-05-21T12:30:47;8.60;;;5.43;;
70455;SDS011;57916;51.996;5.180;2023-05-21T12:33:15;12.63;;;5.22;;
70455;SDS011;57916;51.996;5.180;2023-05-21T12:35:46;12.77;;;5.07;;
70455;SDS011;57916;51.996;5.180;2023-05-21T12:38:15;9.65;;;5.00;;
70455;SDS011;57916;51.996;5.180;2023-05-21T12:40:42;7.50;;;5.40;;
70455;SDS011;57916;51.996;5.180;2023-05-21T12:43:11;9.02;;;5.70;;
70455;SDS011;57916;51.996;5.180;2023-05-21T12:45:38;9.95;;;5.53;;
70455;SDS011;57916;51.996;5.180;2023-05-21T12:48:06;6.88;;;5.47;;
70455;SDS011;57916;51.996;5.180;2023-05-21T12:50:37;8.88;;;5.40;;
70455;SDS011;57916;51.996;5.180;2023-05-21T12:53:07;9.20;;;6.05;;
70455;SDS011;57916;51.996;5.180;2023-05-21T12:55:35;10.65;;;4.90;;
70455;SDS011;57916;51.996;5.180;2023-05-21T12:58:03;11.98;;;5.90;;
70455;SDS011;57916;51.996;5.180;2023-05-21T13:00:33;7.18;;;5.65;;
70455;SDS011;57916;51.996;5.180;2023-05-21T13:03:01;11.40;;;5.57;;
70455;SDS011;57916;51.996;5.180;2023-05-21T13:05:30;8.90;;;4.93;;
70455;SDS011;57916;51.996;5.180;2023-05-21T13:07:57;10.60;;;5.05;;
70455;SDS011;57916;51.996;5.180;2023-05-21T13:10:24;8.90;;;5.63;;
70455;SDS011;57916;51.996;5.180;2023-05-21T13:12:51;14.82;;;5.78;;
70455;SDS011;57916;51.996;5.180;2023-05-21T13:15:18;8.27;;;5.40;;
70455;SDS011;57916;51.996;5.180;2023-05-21T13:17:45;7.00;;;4.57;;
70455;SDS011;57916;51.996;5.180;2023-05-21T13:20:17;5.90;;;5.18;;
70455;SDS011;57916;51.996;5.180;2023-05-21T13:22:51;7.35;;;4.50;;
70455;SDS011;57916;51.996;5.180;2023-05-21T13:25:20;4.95;;;4.47;;
70455;SDS011;57916;51.996;5.180;2023-05-21T13:27:50;7.70;;;4.82;;
70455;SDS011;57916;51.996;5.180;2023-05-21T13:30:18;6.35;;;4.65;;
70455;SDS011;57916;51.996;5.180;2023-05-21T13:32:46;7.32;;;4.70;;
70455;SDS011;57916;51.996;5.180;2023-05-21T13:35:14;9.38;;;4.80;;
70455;SDS011;57916;51.996;5.180;2023-05-21T13:37:42;6.60;;;4.55;;
70455;SDS011;57916;51.996;5.180;2023-05-21T13:40:11;10.05;;;3.95;;
70455;SDS011;57916;51.996;5.180;2023-05-21T13:42:41;7.80;;;5.07;;
70455;SDS011;57916;51.996;5.180;2023-05-21T13:45:11;9.02;;;4.93;;
70455;SDS011;57916;51.996;5.180;2023-05-21T13:47:40;7.22;;;5.15;;
70455;SDS011;57916;51.996;5.180;2023-05-21T13:50:09;13.52;;;5.10;;
70455;SDS011;57916;51.996;5.180;2023-05-21T13:52:36;11.83;;;4.77;;
70455;SDS011;57916;51.996;5.180;2023-05-21T13:55:04;11.30;;;4.90;;
70455;SDS011;57916;51.996;5.180;2023-05-21T13:57:31;8.18;;;5.13;;
70455;SDS011;57916;51.996;5.180;2023-05-21T13:59:58;11.88;;;5.38;;
70455;SDS011;57916;51.996;5.180;2023-05-21T14:02:26;11.73;;;5.90;;
70455;SDS011;57916;51.996;5.180;2023-05-21T14:04:53;8.68;;;5.15;;
70455;SDS011;57916;51.996;5.180;2023-05-21T14:07:20;6.85;;;5.15;;
70455;SDS011;57916;51.996;5.180;2023-05-21T14:09:48;8.70;;;5.13;;
70455;SDS011;57916;51.996;5.180;2023-05-21T14:12:15;8.47;;;5.20;;
70455;SDS011;57916;51.996;5.180;2023-05-21T14:14:42;8.35;;;5.43;;
70455;SDS011;57916;51.996;5.180;2023-05-21T14:17:09;6.78;;;4.95;;
70455;SDS011;57916;51.996;5.180;2023-05-21T14:19:36;9.85;;;4.72;;
70455;SDS011;57916;51.996;5.180;2023-05-21T14:22:04;12.90;;;5.03;;
70455;SDS011;57916;51.996;5.180;2023-05-21T14:24:30;10.02;;;4.95;;
70455;SDS011;57916;51.996;5.180;2023-05-21T14:26:58;11.18;;;5.55;;
70455;SDS011;57916;51.996;5.180;2023-05-21T14:29:25;10.27;;;5.78;;
70455;SDS011;57916;51.996;5.180;2023-05-21T14:31:52;10.73;;;5.60;;
70455;SDS011;57916;51.996;5.180;2023-05-21T14:34:19;10.23;;;5.25;;
70455;SDS011;57916;51.996;5.180;2023-05-21T14:36:46;15.32;;;5.25;;
70455;SDS011;57916;51.996;5.180;2023-05-21T14:39:13;7.37;;;5.20;;
70455;SDS011;57916;51.996;5.180;2023-05-21T14:41:39;9.45;;;5.70;;
70455;SDS011;57916;51.996;5.180;2023-05-21T14:44:06;9.52;;;5.78;;
70455;SDS011;57916;51.996;5.180;2023-05-21T14:46:33;6.20;;;5.13;;
70455;SDS011;57916;51.996;5.180;2023-05-21T14:49:02;9.27;;;5.28;;
70455;SDS011;57916;51.996;5.180;2023-05-21T14:51:29;11.23;;;5.40;;
70455;SDS011;57916;51.996;5.180;2023-05-21T14:53:57;8.48;;;5.72;;
70455;SDS011;57916;51.996;5.180;2023-05-21T14:56:25;8.50;;;5.63;;
70455;SDS011;57916;51.996;5.180;2023-05-21T14:58:53;5.93;;;4.38;;
70455;SDS011;57916;51.996;5.180;2023-05-21T15:01:20;8.37;;;4.93;;
70455;SDS011;57916;51.996;5.180;2023-05-21T15:03:48;14.13;;;4.60;;
70455;SDS011;57916;51.996;5.180;2023-05-21T15:06:15;10.10;;;4.50;;
70455;SDS011;57916;51.996;5.180;2023-05-21T15:08:42;8.13;;;4.60;;
70455;SDS011;57916;51.996;5.180;2023-05-21T15:11:09;6.63;;;4.53;;
70455;SDS011;57916;51.996;5.180;2023-05-21T15:13:37;6.88;;;4.80;;
70455;SDS011;57916;51.996;5.180;2023-05-21T15:16:04;9.45;;;4.93;;
70455;SDS011;57916;51.996;5.180;2023-05-21T15:18:31;8.53;;;5.10;;
70455;SDS011;57916;51.996;5.180;2023-05-21T15:20:59;9.32;;;4.15;;
70455;SDS011;57916;51.996;5.180;2023-05-21T15:23:26;6.78;;;4.38;;